Terminal Aerodrome Forecast
Issued by NWS Cleveland, OH

Home | Current Version | Previous Version | Graphics & Text | Print | Product List | Glossary On
Versions: 1 2 3 4 5 6 7 8 9 10 11 12 13 14
000
FTUS41 KCLE 010538
TAFMFD
TAF
KMFD 010538Z 0106/0206 26007KT P6SM SCT080
     FM011700 27010G18KT P6SM SCT050
     FM020100 24004KT P6SM SCT050=

USA.gov is the U.S. government's official web portal to all federal, state and local government web resources and services.